Time;durP1;ratioP1;P1;durP2;ratioP2;P2;SDS_P1;SDS_P2;PMS_P1;PMS_P2;Temp;Humidity;BMP_temperature;BMP_pressure;BME280_temperature;BME280_humidity;BME280_pressure;Samples;Min_cycle;Max_cycle;Signal;HPM_P1;HPM_P2
2023/08/25 11:30:38;;;;;;;12.23;10.50;;;;;;;;;;6265061;22;20138;-84
2023/08/25 11:33:04;;;;;;;11.25;9.85;;;;;;;;;;6341915;22;20007;-85
2023/08/25 11:35:31;;;;;;;14.65;11.05;;;;;;;;;;6343268;22;20417;-87
2023/08/25 11:37:56;;;;;;;11.80;9.52;;;;;;;;;;6328542;22;20006;-87
2023/08/25 11:40:24;;;;;;;13.25;10.20;;;;;;;;;;6312882;22;20022;-86
2023/08/25 11:42:51;;;;;;;12.07;10.15;;;;;;;;;;6311104;22;20318;-86
2023/08/25 11:45:17;;;;;;;11.50;10.30;;;;;;;;;;6308934;22;20010;-88
2023/08/25 16:41:00;;;;;;;6.90;6.25;;;;;;;;;;6319235;22;20026;-85
2023/08/25 16:43:26;;;;;;;6.47;5.88;;;;;;;;;;6312727;22;20011;-85
2023/08/25 16:45:52;;;;;;;6.78;6.18;;;;;;;;;;6309031;22;20007;-86
2023/08/25 16:48:20;;;;;;;7.30;6.32;;;;;;;;;;6297063;22;20003;-87
2023/08/25 16:50:46;;;;;;;8.55;6.43;;;;;;;;;;6284860;22;20000;-90
2023/08/25 16:53:12;;;;;;;7.95;6.78;;;;;;;;;;6280478;22;20060;-86
2023/08/25 16:55:43;;;;;;;7.68;6.65;;;;;;;;;;6279261;22;20462;-86
2023/08/25 16:58:09;;;;;;;8.82;6.65;;;;;;;;;;6279687;22;20029;-85
2023/08/25 17:00:38;;;;;;;7.18;6.00;;;;;;;;;;6277589;22;20091;-84
2023/08/25 17:03:04;;;;;;;8.57;6.38;;;;;;;;;;6277903;22;20071;-90
2023/08/25 17:05:29;;;;;;;8.15;6.40;;;;;;;;;;6278923;22;20027;-86
2023/08/25 17:07:55;;;;;;;6.10;5.60;;;;;;;;;;6278940;22;20323;-90
2023/08/25 17:10:21;;;;;;;6.40;5.80;;;;;;;;;;6279000;22;20003;-85
2023/08/25 17:12:50;;;;;;;7.07;6.00;;;;;;;;;;6279126;22;20007;-86
2023/08/25 17:15:18;;;;;;;6.85;5.97;;;;;;;;;;6279420;22;20000;-87
2023/08/25 17:17:43;;;;;;;6.70;6.10;;;;;;;;;;6279203;22;20000;-94
2023/08/25 17:20:12;;;;;;;6.55;5.90;;;;;;;;;;6278034;22;20003;-92
2023/08/25 17:22:38;;;;;;;;;;;;;;;;;;6279308;22;20082;-93
2023/08/25 17:25:06;;;;;;;7.13;6.45;;;;;;;;;;6277936;22;19915;-94
2023/08/25 17:27:33;;;;;;;7.00;6.30;;;;;;;;;;6279026;22;20012;-93
2023/08/25 17:29:58;;;;;;;6.88;6.28;;;;;;;;;;6279484;22;20035;-88
2023/08/25 17:32:24;;;;;;;8.68;6.65;;;;;;;;;;6279198;22;20000;-89
2023/08/25 17:34:55;;;;;;;7.00;6.40;;;;;;;;;;6278848;22;20015;-95
2023/08/25 17:37:25;;;;;;;8.88;7.63;;;;;;;;;;6277532;22;19999;-86
2023/08/25 17:39:51;;;;;;;7.78;6.30;;;;;;;;;;6280457;22;20486;-89
2023/08/25 17:42:17;;;;;;;7.78;7.07;;;;;;;;;;6292701;22;20016;-86
2023/08/25 17:44:43;;;;;;;7.32;6.63;;;;;;;;;;6283411;22;20015;-88
2023/08/25 17:47:08;;;;;;;6.97;6.28;;;;;;;;;;6284306;22;20031;-95
2023/08/25 17:49:34;;;;;;;7.13;6.50;;;;;;;;;;6283963;22;20018;-93
2023/08/25 17:51:59;;;;;;;7.85;7.05;;;;;;;;;;6283836;22;20026;-89
2023/08/25 17:54:25;;;;;;;7.72;6.50;;;;;;;;;;6283603;22;20015;-90
2023/08/25 17:56:50;;;;;;;7.97;7.07;;;;;;;;;;6283984;22;20441;-90
2023/08/25 17:59:16;;;;;;;7.28;6.68;;;;;;;;;;6310781;22;20430;-92
2023/08/25 18:01:41;;;;;;;7.00;6.40;;;;;;;;;;6283677;22;19999;-89
2023/08/25 18:04:07;;;;;;;8.00;7.03;;;;;;;;;;6282990;22;20003;-90
2023/08/25 18:06:34;;;;;;;9.25;8.45;;;;;;;;;;6283391;22;19999;-91
2023/08/25 18:09:00;;;;;;;9.23;8.32;;;;;;;;;;6282864;22;20014;-92
2023/08/25 18:11:25;;;;;;;8.05;7.25;;;;;;;;;;6282707;22;20039;-88
2023/08/25 18:13:51;;;;;;;9.48;8.57;;;;;;;;;;6283068;22;20078;-89
2023/08/25 18:16:16;;;;;;;8.38;7.57;;;;;;;;;;6310465;22;19995;-89
2023/08/25 18:18:42;;;;;;;7.65;6.97;;;;;;;;;;6282619;22;20082;-88
2023/08/25 18:21:07;;;;;;;7.10;6.50;;;;;;;;;;6309631;22;20003;-88
2023/08/25 18:23:34;;;;;;;8.35;7.55;;;;;;;;;;6309322;22;20318;-88
2023/08/25 18:26:00;;;;;;;7.82;6.78;;;;;;;;;;6309851;22;20003;-91
2023/08/25 18:28:26;;;;;;;8.00;7.20;;;;;;;;;;6283277;22;20422;-92
2023/08/25 18:31:03;;;;;;;9.38;7.53;;;;;;;;;;6286173;22;20002;-92
2023/08/25 18:33:29;;;;;;;7.90;7.10;;;;;;;;;;6284061;22;20086;-87
2023/08/25 18:35:55;;;;;;;7.43;6.72;;;;;;;;;;6309688;22;20061;-92
2023/08/25 18:38:22;;;;;;;7.95;7.25;;;;;;;;;;6283963;22;20430;-92
2023/08/25 18:40:48;;;;;;;7.65;6.85;;;;;;;;;;6260787;22;20090;-92
2023/08/25 18:43:14;;;;;;;6.78;6.15;;;;;;;;;;6283029;22;20054;-90
2023/08/25 18:45:39;;;;;;;7.15;6.53;;;;;;;;;;6285412;22;20059;-93
2023/08/25 18:48:05;;;;;;;6.85;6.20;;;;;;;;;;6309326;22;20003;-88
2023/08/25 18:50:31;;;;;;;7.35;6.65;;;;;;;;;;6284691;22;19994;-95
2023/08/25 18:52:58;;;;;;;9.27;7.07;;;;;;;;;;6287610;22;20003;-85
2023/08/25 18:55:26;;;;;;;7.25;6.65;;;;;;;;;;6314360;22;20003;-96
2023/08/25 18:57:52;;;;;;;8.07;6.30;;;;;;;;;;6294414;22;20011;-88
2023/08/25 19:00:18;;;;;;;7.20;6.60;;;;;;;;;;6286654;22;20008;-92
2023/08/25 19:02:43;;;;;;;7.75;6.95;;;;;;;;;;6289750;22;20063;-89
2023/08/25 19:05:09;;;;;;;8.15;6.93;;;;;;;;;;6285274;22;20007;-89
2023/08/25 19:07:34;;;;;;;7.72;6.97;;;;;;;;;;6284238;22;20082;-89
2023/08/25 19:10:00;;;;;;;7.50;6.70;;;;;;;;;;6285080;22;20007;-89
2023/08/25 19:12:25;;;;;;;10.27;6.75;;;;;;;;;;6284140;22;20010;-89
2023/08/25 19:14:51;;;;;;;8.52;7.05;;;;;;;;;;6284199;22;20008;-91
2023/08/25 19:17:16;;;;;;;8.38;7.53;;;;;;;;;;6285117;22;20337;-89
2023/08/25 19:19:42;;;;;;;8.27;7.47;;;;;;;;;;6288407;22;19999;-90
2023/08/25 19:22:09;;;;;;;7.50;6.90;;;;;;;;;;6288010;22;20035;-90
2023/08/25 19:24:36;;;;;;;7.85;6.32;;;;;;;;;;6286196;22;20330;-90
2023/08/25 19:27:01;;;;;;;7.18;6.47;;;;;;;;;;6287245;22;20003;-90
2023/08/25 19:29:27;;;;;;;6.95;6.25;;;;;;;;;;6289675;22;20026;-90
2023/08/25 19:31:56;;;;;;;7.72;6.97;;;;;;;;;;6264149;22;20014;-91
2023/08/25 19:34:21;;;;;;;;;;;;;;;;;;6290988;22;20061;-90
2023/08/25 19:36:47;;;;;;;7.45;6.75;;;;;;;;;;6319383;22;19907;-90
2023/08/25 19:39:13;;;;;;;7.38;6.68;;;;;;;;;;6288465;22;20373;-90
2023/08/25 19:41:39;;;;;;;7.80;7.00;;;;;;;;;;6285681;22;20011;-90
2023/08/25 19:44:05;;;;;;;6.63;6.03;;;;;;;;;;6286896;22;20055;-90
2023/08/25 19:46:30;;;;;;;7.70;7.00;;;;;;;;;;6312628;22;19995;-89
2023/08/25 19:48:57;;;;;;;7.45;6.80;;;;;;;;;;6286373;22;20007;-89
2023/08/25 19:51:25;;;;;;;7.15;6.55;;;;;;;;;;6311033;22;20000;-90
2023/08/25 19:53:51;;;;;;;7.68;6.78;;;;;;;;;;6284768;22;20029;-90
2023/08/25 19:56:16;;;;;;;7.40;6.72;;;;;;;;;;6283818;22;20003;-90
2023/08/25 19:58:47;;;;;;;7.00;6.40;;;;;;;;;;6283687;22;20053;-89
2023/08/25 20:01:14;;;;;;;7.80;7.07;;;;;;;;;;6311238;22;20061;-88
2023/08/25 20:03:40;;;;;;;7.32;6.72;;;;;;;;;;6281642;22;20364;-89
2023/08/25 20:06:08;;;;;;;8.20;7.38;;;;;;;;;;6321101;22;20003;-88
2023/08/25 20:08:35;;;;;;;7.47;6.78;;;;;;;;;;6285305;22;20019;-90
2023/08/25 20:11:03;;;;;;;8.05;7.25;;;;;;;;;;6315273;22;20056;-89
2023/08/25 20:13:30;;;;;;;7.45;6.75;;;;;;;;;;6288425;22;20014;-94
2023/08/25 20:15:56;;;;;;;7.60;6.80;;;;;;;;;;6282324;22;20003;-92
2023/08/25 20:18:22;;;;;;;7.70;7.00;;;;;;;;;;6281647;22;20003;-91
2023/08/25 20:20:48;;;;;;;8.20;7.38;;;;;;;;;;6308904;22;20419;-88
2023/08/25 20:23:15;;;;;;;7.93;7.13;;;;;;;;;;6281780;22;20007;-94
2023/08/25 20:25:41;;;;;;;9.57;7.32;;;;;;;;;;6281648;22;20017;-91
2023/08/25 20:28:07;;;;;;;8.20;7.40;;;;;;;;;;6308615;22;19999;-91
2023/08/25 20:30:33;;;;;;;8.95;8.07;;;;;;;;;;6285390;22;20015;-90
2023/08/25 20:33:05;;;;;;;8.10;7.40;;;;;;;;;;6285817;22;20011;-90
2023/08/25 20:35:42;;;;;;;8.32;7.57;;;;;;;;;;6289487;22;20007;-89
2023/08/25 20:38:10;;;;;;;8.10;7.40;;;;;;;;;;6286349;22;20004;-92
2023/08/25 20:40:36;;;;;;;8.10;7.30;;;;;;;;;;6316304;22;20025;-93
2023/08/25 20:43:02;;;;;;;8.95;7.43;;;;;;;;;;6286037;22;20129;-91
2023/08/25 20:45:28;;;;;;;7.93;7.22;;;;;;;;;;6286808;22;20003;-91
2023/08/25 20:47:58;;;;;;;8.52;7.72;;;;;;;;;;6290381;22;20030;-89
2023/08/25 20:50:23;;;;;;;7.90;7.10;;;;;;;;;;6319573;22;20011;-89
2023/08/25 20:52:49;;;;;;;8.35;7.55;;;;;;;;;;6299417;22;20011;-89
2023/08/25 20:55:15;;;;;;;7.90;7.15;;;;;;;;;;6290793;22;20418;-89
2023/08/25 20:57:44;;;;;;;8.15;7.45;;;;;;;;;;6292788;22;20000;-92
2023/08/25 21:00:10;;;;;;;8.23;7.30;;;;;;;;;;6320714;22;20003;-93
2023/08/25 21:02:45;;;;;;;8.50;7.68;;;;;;;;;;6293700;22;20004;-88
2023/08/25 21:05:15;;;;;;;8.43;7.53;;;;;;;;;;6324084;22;20003;-92
2023/08/25 21:07:42;;;;;;;8.10;7.37;;;;;;;;;;6286027;22;20003;-89
2023/08/25 21:10:08;;;;;;;8.20;7.40;;;;;;;;;;6287296;22;20004;-90
2023/08/25 21:12:35;;;;;;;8.13;7.28;;;;;;;;;;6313845;22;20004;-91
2023/08/25 21:15:06;;;;;;;8.38;7.57;;;;;;;;;;6292443;22;20015;-90
2023/08/25 21:17:31;;;;;;;8.50;7.68;;;;;;;;;;6318166;22;20072;-90
2023/08/25 21:19:57;;;;;;;8.57;7.78;;;;;;;;;;6287868;22;20307;-89
2023/08/25 21:22:24;;;;;;;8.10;7.40;;;;;;;;;;6287085;22;19996;-90
2023/08/25 21:24:49;;;;;;;7.68;6.88;;;;;;;;;;6288768;22;20007;-90
2023/08/25 21:27:16;;;;;;;8.43;7.63;;;;;;;;;;6294842;22;20011;-91
2023/08/25 21:29:42;;;;;;;8.63;7.82;;;;;;;;;;6295527;22;20007;-90
2023/08/25 21:32:10;;;;;;;8.57;7.78;;;;;;;;;;6293421;22;19999;-90
2023/08/25 21:34:40;;;;;;;8.15;7.45;;;;;;;;;;6294882;22;20033;-90
2023/08/25 21:37:07;;;;;;;8.20;7.38;;;;;;;;;;6320694;22;20027;-90
2023/08/25 21:39:33;;;;;;;8.15;7.45;;;;;;;;;;6271102;22;20003;-91
2023/08/25 21:41:59;;;;;;;10.40;7.72;;;;;;;;;;6290588;22;20038;-93
2023/08/25 21:44:24;;;;;;;10.15;7.80;;;;;;;;;;6290572;22;20000;-91
2023/08/25 21:46:50;;;;;;;8.93;8.10;;;;;;;;;;6286371;22;20000;-92
2023/08/25 21:49:15;;;;;;;8.80;8.00;;;;;;;;;;6282468;22;20026;-91
2023/08/25 21:51:41;;;;;;;10.00;8.98;;;;;;;;;;6281008;22;20038;-95
2023/08/25 21:54:06;;;;;;;8.70;7.80;;;;;;;;;;6285236;22;20011;-89
2023/08/25 21:56:32;;;;;;;8.50;7.70;;;;;;;;;;6284854;22;20014;-92
2023/08/25 21:59:01;;;;;;;8.65;7.95;;;;;;;;;;6285784;22;20010;-89
2023/08/25 22:01:27;;;;;;;8.98;8.05;;;;;;;;;;6293784;22;20010;-95
2023/08/25 22:04:03;;;;;;;8.68;7.93;;;;;;;;;;6279831;22;20027;-93
2023/08/25 22:06:31;;;;;;;8.75;8.00;;;;;;;;;;6281069;22;20011;-95
2023/08/25 22:08:57;;;;;;;8.57;7.82;;;;;;;;;;6278727;22;20007;-94
2023/08/25 22:11:22;;;;;;;8.30;7.43;;;;;;;;;;6279746;22;20004;-91
2023/08/25 22:13:48;;;;;;;10.18;7.88;;;;;;;;;;6282868;22;20000;-93
2023/08/25 22:16:13;;;;;;;9.02;8.13;;;;;;;;;;6279146;22;20086;-90
2023/08/25 22:18:39;;;;;;;8.95;8.15;;;;;;;;;;6277744;22;20446;-88
